Overview Statistics Trail Chart Weather Telemetry Raw packets
 

This is the latest recevied weather packets stored in our database for station/object KN6CRX-10. If no packets are shown the sender has not sent any weather packets the latest 10 day(s).

<< 17 18 19 20 21 22 23 >>
Time Temp. Humidity Pressure Rain* Wind** Luminosity Snow
1788299562 25.56° C 43% 1016.6 hPa 0 mm - 765 W/m² -
1788299261 24.44° C 44% 1016.9 hPa 0 mm - 605 W/m² -
1788298960 25° C 43% 1017.1 hPa 0 mm - 156 W/m² -
1788298655 25.56° C 43% 1017.4 hPa 0 mm - 170 W/m² -
1788298355 26.11° C 41% 1017.4 hPa 0 mm - 242 W/m² -
1788298055 26.11° C 41% 1017.5 hPa 0 mm - 428 W/m² -
1788297751 26.67° C 39% 1017.6 hPa 0 mm - 217 W/m² -
1788297445 26.11° C 40% 1017.8 hPa 0 mm - 801 W/m² -
1788297142 26.67° C 40% 1017.8 hPa 0 mm - 640 W/m² -
1788296838 25.56° C 43% 1017.9 hPa 0 mm - 857 W/m² -
1788296533 25.56° C 42% 1017.9 hPa 0 mm - 546 W/m² -
1788296229 26.67° C 41% 1018 hPa 0 mm - 574 W/m² -
1788295923 25.56° C 41% 1018.2 hPa 0 mm - 902 W/m² -
1788295642 25.56° C 42% 1018.3 hPa 0 mm - 878 W/m² -
1788295314 26.11° C 41% 1018.2 hPa 0 mm - 669 W/m² -
1788295014 25.56° C 42% 1018.3 hPa 0 mm - 891 W/m² -
1788294710 25° C 43% 1018 hPa 0 mm - 955 W/m² -
1788294409 25° C 43% 1018.3 hPa 0 mm - 456 W/m² -
1788294105 25.56° C 43% 1018.3 hPa 0 mm - 465 W/m² -
1788293801 25.56° C 43% 1018.5 hPa 0 mm - 765 W/m² -
1788293500 25° C 43% 1018.5 hPa 0 mm - 925 W/m² -
1788293200 24.44° C 44% 1018.5 hPa 0 mm - 899 W/m² -
1788292895 23.89° C 46% 1018.5 hPa 0 mm - 817 W/m² -
1788292592 24.44° C 45% 1018.5 hPa 0 mm - 635 W/m² -
1788292292 24.44° C 44% 1018.7 hPa 0 mm - 822 W/m² -

* Rain latest hour (hover to see other rain measurements)
** Current wind speed in m/s (hover to see current wind gust speed)